Time,TemperatureF,DewpointF,PressureIn,WindDirection,WindDirectionDegrees,WindSpeedMPH,WindSpeedGustMPH,Humidity,HourlyPrecipIn,Conditions,Clouds,dailyrainin,SoftwareType,DateUTC
2013-09-16 00:01:00,52.1,41.5,29.65,NNW,346,0.0,0.0,67,0.00,CLR,,0.00,WeatherDisplay:10.37,2013-09-16 08:01:00,
2013-09-16 00:06:00,52.0,41.4,29.65,NNW,346,0.0,0.0,67,0.00,CLR,,0.00,WeatherDisplay:10.37,2013-09-16 08:06:00,
2013-09-16 00:11:00,52.5,40.3,29.64,NNW,346,0.0,0.0,63,0.00,CLR,,0.00,WeatherDisplay:10.37,2013-09-16 08:11:00,
2013-09-16 00:16:00,53.0,40.3,29.64,NNW,346,0.0,0.0,62,0.00,CLR,,0.00,WeatherDisplay:10.37,2013-09-16 08:16:00,
2013-09-16 00:21:00,53.2,40.9,29.64,NNW,346,0.0,0.0,63,0.00,CLR,,0.00,WeatherDisplay:10.37,2013-09-16 08:21:00,
2013-09-16 00:26:00,54.0,40.4,29.64,NNW,346,0.0,0.0,60,0.00,CLR,,0.00,WeatherDisplay:10.37,2013-09-16 08:26:00,
2013-09-16 00:31:00,54.5,40.5,29.64,NNW,346,0.0,0.0,59,0.00,CLR,,0.00,WeatherDisplay:10.37,2013-09-16 08:31:00,
2013-09-16 00:36:00,55.0,39.6,29.64,NNW,347,0.0,0.0,56,0.00,CLR,,0.00,WeatherDisplay:10.37,2013-09-16 08:36:00,
2013-09-16 00:41:00,55.9,40.0,29.64,NNW,347,0.0,0.0,55,0.00,CLR,,0.00,WeatherDisplay:10.37,2013-09-16 08:41:00,
2013-09-16 00:46:00,56.4,40.9,29.64,NNW,347,0.0,0.0,56,0.00,CLR,,0.00,WeatherDisplay:10.37,2013-09-16 08:46:00,
2013-09-16 00:51:00,56.4,39.5,29.64,NNW,346,0.0,0.0,53,0.00,CLR,,0.00,WeatherDisplay:10.37,2013-09-16 08:51:00,
2013-09-16 00:56:00,57.2,39.2,29.63,NNW,345,0.0,0.0,51,0.00,CLR,,0.00,WeatherDisplay:10.37,2013-09-16 08:56:00,
2013-09-16 01:01:00,57.5,40.0,29.63,NNW,346,0.0,0.0,52,0.00,CLR,,0.00,WeatherDisplay:10.37,2013-09-16 09:01:00,
2013-09-16 01:06:00,57.3,40.8,29.64,NNW,345,0.0,0.0,54,0.00,CLR,,0.00,WeatherDisplay:10.37,2013-09-16 09:06:00,
2013-09-16 01:11:00,56.6,40.1,29.64,NNW,346,0.0,0.0,54,0.00,CLR,,0.00,WeatherDisplay:10.37,2013-09-16 09:11:00,
2013-09-16 01:16:00,56.3,39.9,29.63,NNW,346,0.0,0.0,54,0.00,CLR,,0.00,WeatherDisplay:10.37,2013-09-16 09:16:00,
2013-09-16 01:21:00,56.3,40.3,29.63,NNW,345,0.0,0.0,55,0.00,CLR,,0.00,WeatherDisplay:10.37,2013-09-16 09:21:00,
2013-09-16 01:26:00,56.5,39.6,29.63,NNW,344,0.0,0.0,53,0.00,CLR,,0.00,WeatherDisplay:10.37,2013-09-16 09:26:00,
2013-09-16 01:31:00,56.6,40.1,29.63,NNW,346,0.0,0.0,54,0.00,CLR,,0.00,WeatherDisplay:10.37,2013-09-16 09:31:00,
2013-09-16 01:36:00,55.4,41.3,29.63,NNW,346,0.0,0.0,59,0.00,CLR,,0.00,WeatherDisplay:10.37,2013-09-16 09:36:00,
2013-09-16 01:41:00,54.1,40.1,29.62,NNW,345,0.0,0.0,59,0.00,CLR,,0.00,WeatherDisplay:10.37,2013-09-16 09:41:00,
2013-09-16 01:46:00,53.5,40.4,29.63,NNW,345,0.0,0.0,61,0.00,CLR,,0.00,WeatherDisplay:10.37,2013-09-16 09:46:00,
2013-09-16 01:51:00,52.9,41.0,29.62,NNW,345,0.0,0.0,64,0.00,CLR,,0.00,WeatherDisplay:10.37,2013-09-16 09:51:00,
2013-09-16 01:56:00,52.0,41.4,29.63,NNW,345,0.0,0.0,67,0.00,CLR,,0.00,WeatherDisplay:10.37,2013-09-16 09:56:00,
2013-09-16 02:01:00,50.8,41.0,29.63,NNW,345,0.0,0.0,69,0.00,CLR,,0.00,WeatherDisplay:10.37,2013-09-16 10:01:00,
2013-09-16 02:06:00,50.1,41.1,29.63,NNW,345,0.0,0.0,71,0.00,CLR,,0.00,WeatherDisplay:10.37,2013-09-16 10:06:00,
2013-09-16 02:11:00,49.7,41.4,29.63,NNW,346,0.0,0.0,73,0.00,CLR,,0.00,WeatherDisplay:10.37,2013-09-16 10:11:00,
2013-09-16 02:16:00,49.3,41.0,29.63,NNW,346,0.0,0.0,73,0.00,CLR,,0.00,WeatherDisplay:10.37,2013-09-16 10:16:00,
2013-09-16 02:21:00,49.0,40.7,29.62,NNW,345,0.0,0.0,73,0.00,CLR,,0.00,WeatherDisplay:10.37,2013-09-16 10:21:00,
2013-09-16 02:26:00,48.9,41.0,29.62,NNW,346,0.0,0.0,74,0.00,CLR,,0.00,WeatherDisplay:10.37,2013-09-16 10:26:00,
2013-09-16 02:31:00,48.7,40.8,29.62,NNW,346,0.0,0.0,74,0.00,CLR,,0.00,WeatherDisplay:10.37,2013-09-16 10:31:00,
2013-09-16 02:36:00,48.5,40.6,29.62,NNW,346,0.0,0.0,74,0.00,CLR,,0.00,WeatherDisplay:10.37,2013-09-16 10:36:00,
2013-09-16 02:41:00,48.4,40.8,29.62,NNW,346,0.0,0.0,75,0.00,CLR,,0.00,WeatherDisplay:10.37,2013-09-16 10:41:00,
2013-09-16 02:46:00,48.5,40.6,29.62,NNW,346,0.0,0.0,74,0.00,CLR,,0.00,WeatherDisplay:10.37,2013-09-16 10:46:00,
2013-09-16 02:51:00,48.8,40.9,29.61,NNW,346,0.0,0.0,74,0.00,CLR,,0.00,WeatherDisplay:10.37,2013-09-16 10:51:00,
2013-09-16 02:56:00,48.8,41.2,29.61,NNW,345,0.0,0.0,75,0.00,CLR,,0.00,WeatherDisplay:10.37,2013-09-16 10:56:00,
2013-09-16 03:01:00,48.5,40.6,29.61,NNW,346,0.0,0.0,74,0.00,CLR,,0.00,WeatherDisplay:10.37,2013-09-16 11:01:00,
2013-09-16 03:06:00,48.2,40.6,29.61,NNW,346,0.0,0.0,75,0.00,CLR,,0.00,WeatherDisplay:10.37,2013-09-16 11:06:00,
2013-09-16 03:11:00,48.0,40.5,29.62,NNW,346,0.0,0.0,75,0.00,CLR,,0.00,WeatherDisplay:10.37,2013-09-16 11:11:00,
2013-09-16 03:16:00,47.9,40.7,29.61,NNW,347,0.0,0.0,76,0.00,CLR,,0.00,WeatherDisplay:10.37,2013-09-16 11:16:00,
2013-09-16 03:21:00,48.3,40.4,29.61,NNW,346,0.0,0.0,74,0.00,CLR,,0.00,WeatherDisplay:10.37,2013-09-16 11:21:00,
2013-09-16 03:26:00,48.5,40.6,29.61,NNW,346,0.0,0.0,74,0.00,CLR,,0.00,WeatherDisplay:10.37,2013-09-16 11:26:00,
2013-09-16 03:31:00,48.5,40.6,29.61,NNW,347,0.0,0.0,74,0.00,CLR,,0.00,WeatherDisplay:10.37,2013-09-16 11:31:00,
2013-09-16 03:36:00,48.5,40.6,29.60,NNW,347,0.0,0.0,74,0.00,CLR,,0.00,WeatherDisplay:10.37,2013-09-16 11:36:00,
2013-09-16 03:41:00,48.5,40.2,29.60,NNW,347,0.0,0.0,73,0.00,CLR,,0.00,WeatherDisplay:10.37,2013-09-16 11:41:00,
2013-09-16 03:46:00,48.5,40.6,29.59,NNW,347,0.0,0.0,74,0.00,CLR,,0.00,WeatherDisplay:10.37,2013-09-16 11:46:00,
2013-09-16 03:51:00,48.5,40.2,29.59,NNW,347,0.0,0.0,73,0.00,CLR,,0.00,WeatherDisplay:10.37,2013-09-16 11:51:00,
2013-09-16 03:56:00,48.6,40.3,29.59,NNW,347,0.0,0.0,73,0.00,CLR,,0.00,WeatherDisplay:10.37,2013-09-16 11:56:00,
2013-09-16 04:01:00,48.7,40.4,29.59,NNW,347,0.0,0.0,73,0.00,CLR,,0.00,WeatherDisplay:10.37,2013-09-16 12:01:00,
2013-09-16 04:06:00,48.7,40.1,29.59,NNW,347,0.0,0.0,72,0.00,CLR,,0.00,WeatherDisplay:10.37,2013-09-16 12:06:00,
2013-09-16 04:11:00,48.7,39.7,29.59,NNW,345,0.0,0.0,71,0.00,CLR,,0.00,WeatherDisplay:10.37,2013-09-16 12:11:00,
2013-09-16 04:16:00,49.2,40.2,29.59,NNW,346,0.0,0.0,71,0.00,CLR,,0.00,WeatherDisplay:10.37,2013-09-16 12:16:00,
2013-09-16 04:21:00,49.4,40.4,29.58,NNW,346,0.0,0.0,71,0.00,CLR,,0.00,WeatherDisplay:10.37,2013-09-16 12:21:00,
2013-09-16 04:26:00,49.3,40.7,29.58,NNW,345,0.0,0.0,72,0.00,CLR,,0.00,WeatherDisplay:10.37,2013-09-16 12:26:00,
2013-09-16 04:31:00,49.1,40.5,29.58,NNW,346,0.0,0.0,72,0.00,CLR,,0.00,WeatherDisplay:10.37,2013-09-16 12:31:00,
2013-09-16 04:36:00,48.7,40.4,29.58,NNW,345,0.0,0.0,73,0.00,CLR,,0.00,WeatherDisplay:10.37,2013-09-16 12:36:00,
2013-09-16 04:41:00,48.6,40.3,29.58,NNW,345,0.0,0.0,73,0.00,CLR,,0.00,WeatherDisplay:10.37,2013-09-16 12:41:00,
2013-09-16 04:46:00,48.5,40.2,29.58,NNW,346,0.0,0.0,73,0.00,CLR,,0.00,WeatherDisplay:10.37,2013-09-16 12:46:00,
2013-09-16 04:51:00,48.3,40.0,29.58,NNW,345,0.0,0.0,73,0.00,CLR,,0.00,WeatherDisplay:10.37,2013-09-16 12:51:00,
2013-09-16 04:56:00,48.1,39.9,29.58,NNW,345,0.0,0.0,73,0.00,CLR,,0.00,WeatherDisplay:10.37,2013-09-16 12:56:00,
2013-09-16 05:01:00,47.9,40.0,29.57,NNW,346,0.0,0.0,74,0.00,CLR,,0.00,WeatherDisplay:10.37,2013-09-16 13:01:00,
2013-09-16 05:06:00,47.8,39.9,29.58,NNW,345,0.0,0.0,74,0.00,CLR,,0.00,WeatherDisplay:10.37,2013-09-16 13:06:00,
2013-09-16 05:11:00,47.6,39.7,29.57,NNW,346,0.0,0.0,74,0.00,CLR,,0.00,WeatherDisplay:10.37,2013-09-16 13:11:00,
2013-09-16 05:16:00,47.7,39.8,29.57,NNW,346,0.0,0.0,74,0.00,CLR,,0.00,WeatherDisplay:10.37,2013-09-16 13:16:00,
2013-09-16 05:21:00,47.9,39.3,29.57,NNW,346,0.0,0.0,72,0.00,CLR,,0.00,WeatherDisplay:10.37,2013-09-16 13:21:00,
2013-09-16 05:26:00,48.1,39.9,29.57,NNW,345,0.0,0.0,73,0.00,CLR,,0.00,WeatherDisplay:10.37,2013-09-16 13:26:00,
2013-09-16 05:31:00,48.3,40.0,29.57,NNW,347,0.0,0.0,73,0.00,CLR,,0.00,WeatherDisplay:10.37,2013-09-16 13:31:00,
2013-09-16 05:36:00,48.5,40.2,29.57,NNW,347,0.0,0.0,73,0.00,CLR,,0.00,WeatherDisplay:10.37,2013-09-16 13:36:00,
2013-09-16 05:41:00,48.3,40.0,29.56,NNW,347,0.0,0.0,73,0.00,CLR,,0.00,WeatherDisplay:10.37,2013-09-16 13:41:00,
2013-09-16 05:46:00,48.2,41.0,29.57,NNW,347,0.0,0.0,76,0.00,CLR,,0.00,WeatherDisplay:10.37,2013-09-16 13:46:00,
2013-09-16 05:51:00,48.4,39.8,29.57,NNW,347,0.0,0.0,72,0.00,CLR,,0.00,WeatherDisplay:10.37,2013-09-16 13:51:00,
2013-09-16 05:56:00,48.7,40.1,29.57,NNW,347,0.0,0.0,72,0.00,CLR,,0.00,WeatherDisplay:10.37,2013-09-16 13:56:00,
2013-09-16 06:01:00,49.4,39.7,29.57,NNW,347,0.0,0.0,69,0.00,CLR,,0.00,WeatherDisplay:10.37,2013-09-16 14:01:00,
2013-09-16 06:06:00,49.7,39.6,29.56,NNW,347,0.0,0.0,68,0.00,CLR,,0.00,WeatherDisplay:10.37,2013-09-16 14:06:00,
2013-09-16 06:11:00,49.4,39.7,29.56,NNW,347,0.0,0.0,69,0.00,CLR,,0.00,WeatherDisplay:10.37,2013-09-16 14:11:00,
2013-09-16 06:16:00,49.1,39.7,29.56,NNW,347,0.0,0.0,70,0.00,CLR,,0.00,WeatherDisplay:10.37,2013-09-16 14:16:00,
2013-09-16 06:21:00,48.9,39.9,29.56,NNW,347,0.0,0.0,71,0.00,CLR,,0.00,WeatherDisplay:10.37,2013-09-16 14:21:00,
2013-09-16 06:26:00,49.0,39.3,29.56,NNW,347,0.0,0.0,69,0.00,CLR,,0.00,WeatherDisplay:10.37,2013-09-16 14:26:00,
2013-09-16 06:31:00,49.1,39.4,29.56,NNW,347,0.0,0.0,69,0.00,CLR,,0.00,WeatherDisplay:10.37,2013-09-16 14:31:00,
2013-09-16 06:36:00,49.0,39.6,29.56,NNW,347,0.0,0.0,70,0.00,CLR,,0.00,WeatherDisplay:10.37,2013-09-16 14:36:00,
2013-09-16 06:41:00,48.7,39.4,29.55,NNW,347,0.0,0.0,70,0.00,CLR,,0.00,WeatherDisplay:10.37,2013-09-16 14:41:00,
2013-09-16 06:46:00,48.6,39.3,29.55,NNW,347,0.0,0.0,70,0.00,CLR,,0.00,WeatherDisplay:10.37,2013-09-16 14:46:00,
2013-09-16 06:51:00,48.7,39.0,29.55,NNW,347,0.0,0.0,69,0.00,CLR,,0.00,WeatherDisplay:10.37,2013-09-16 14:51:00,
2013-09-16 06:56:00,49.1,39.0,29.55,NNW,347,0.0,0.0,68,0.00,CLR,,0.00,WeatherDisplay:10.37,2013-09-16 14:56:00,
2013-09-16 07:01:00,49.4,39.3,29.55,NNW,347,0.0,0.0,68,0.00,CLR,,0.00,WeatherDisplay:10.37,2013-09-16 15:01:00,
2013-09-16 07:06:00,49.9,38.6,29.54,NNW,346,0.0,0.0,65,0.00,CLR,,0.00,WeatherDisplay:10.37,2013-09-16 15:06:00,
2013-09-16 07:11:00,50.1,39.6,29.55,NNW,347,0.0,0.0,67,0.00,CLR,,0.00,WeatherDisplay:10.37,2013-09-16 15:11:00,
2013-09-16 07:16:00,49.6,39.1,29.54,NNW,346,0.0,0.0,67,0.00,CLR,,0.00,WeatherDisplay:10.37,2013-09-16 15:16:00,
2013-09-16 07:21:00,49.2,39.1,29.54,NNW,345,0.0,0.0,68,0.00,CLR,,0.00,WeatherDisplay:10.37,2013-09-16 15:21:00,
2013-09-16 07:26:00,48.7,39.4,29.54,NNW,347,0.0,0.0,70,0.00,CLR,,0.00,WeatherDisplay:10.37,2013-09-16 15:26:00,
2013-09-16 07:31:00,48.5,39.2,29.54,NNW,347,0.0,0.0,70,0.00,CLR,,0.00,WeatherDisplay:10.37,2013-09-16 15:31:00,
2013-09-16 07:36:00,48.5,39.2,29.54,NNW,347,0.0,0.0,70,0.00,CLR,,0.00,WeatherDisplay:10.37,2013-09-16 15:36:00,
2013-09-16 07:41:00,48.5,39.2,29.53,NNW,347,0.0,0.0,70,0.00,CLR,,0.00,WeatherDisplay:10.37,2013-09-16 15:41:00,
2013-09-16 07:46:00,48.5,39.2,29.53,NNW,347,0.0,0.0,70,0.00,CLR,,0.00,WeatherDisplay:10.37,2013-09-16 15:46:00,
2013-09-16 07:51:00,48.4,39.1,29.53,NNW,347,0.0,0.0,70,0.00,CLR,,0.00,WeatherDisplay:10.37,2013-09-16 15:51:00,
2013-09-16 07:56:00,48.3,39.0,29.53,NNW,346,0.0,0.0,70,0.00,CLR,,0.00,WeatherDisplay:10.37,2013-09-16 15:56:00,
2013-09-16 08:01:00,48.3,39.3,29.53,NNW,345,0.0,0.0,71,0.00,CLR,,0.00,WeatherDisplay:10.37,2013-09-16 16:01:00,
2013-09-16 08:06:00,48.2,39.2,29.53,NNW,346,0.0,0.0,71,0.00,CLR,,0.00,WeatherDisplay:10.37,2013-09-16 16:06:00,
2013-09-16 08:11:00,48.3,39.3,29.53,NNW,345,0.0,0.0,71,0.00,CLR,,0.00,WeatherDisplay:10.37,2013-09-16 16:11:00,
2013-09-16 08:16:00,48.3,39.0,29.53,NNW,347,0.0,0.0,70,0.00,CLR,,0.00,WeatherDisplay:10.37,2013-09-16 16:16:00,
2013-09-16 08:21:00,48.3,39.0,29.54,NNW,346,0.0,0.0,70,0.00,CLR,,0.00,WeatherDisplay:10.37,2013-09-16 16:21:00,
2013-09-16 08:26:00,48.3,39.3,29.54,NNW,346,0.0,0.0,71,0.00,CLR,,0.00,WeatherDisplay:10.37,2013-09-16 16:26:00,
2013-09-16 08:31:00,48.3,39.0,29.53,NNW,346,0.0,0.0,70,0.00,CLR,,0.00,WeatherDisplay:10.37,2013-09-16 16:31:00,
2013-09-16 08:36:00,48.3,39.0,29.53,NNW,345,0.0,0.0,70,0.00,CLR,,0.00,WeatherDisplay:10.37,2013-09-16 16:36:00,
2013-09-16 08:41:00,48.4,39.1,29.53,NNW,346,0.0,0.0,70,0.00,CLR,,0.00,WeatherDisplay:10.37,2013-09-16 16:41:00,
2013-09-16 08:46:00,48.3,39.0,29.53,NNW,345,0.0,0.0,70,0.00,CLR,,0.00,WeatherDisplay:10.37,2013-09-16 16:46:00,
2013-09-16 08:51:00,48.3,39.0,29.53,NNW,345,0.0,0.0,70,0.00,CLR,,0.00,WeatherDisplay:10.37,2013-09-16 16:51:00,
2013-09-16 08:56:00,48.5,39.2,29.53,NNW,345,0.0,0.0,70,0.00,CLR,,0.00,WeatherDisplay:10.37,2013-09-16 16:56:00,
2013-09-16 09:02:00,48.5,39.2,29.53,NNW,345,0.0,0.0,70,0.00,CLR,,0.00,WeatherDisplay:10.37,2013-09-16 17:02:00,
2013-09-16 09:07:00,48.6,39.3,29.52,NNW,345,0.0,0.0,70,0.00,CLR,,0.00,WeatherDisplay:10.37,2013-09-16 17:07:00,
2013-09-16 09:12:00,48.9,39.2,29.52,NNW,345,0.0,0.0,69,0.00,CLR,,0.00,WeatherDisplay:10.37,2013-09-16 17:12:00,
2013-09-16 09:17:00,49.1,39.4,29.52,NNW,346,0.0,0.0,69,0.00,CLR,,0.00,WeatherDisplay:10.37,2013-09-16 17:17:00,
2013-09-16 09:22:00,49.2,39.1,29.51,NNW,346,0.0,0.0,68,0.00,CLR,,0.00,WeatherDisplay:10.37,2013-09-16 17:22:00,
2013-09-16 09:27:00,49.7,38.4,29.51,NNW,345,0.0,0.0,65,0.00,CLR,,0.00,WeatherDisplay:10.37,2013-09-16 17:27:00,
2013-09-16 09:32:00,50.1,39.6,29.51,NNW,346,0.0,0.0,67,0.00,CLR,,0.00,WeatherDisplay:10.37,2013-09-16 17:32:00,
2013-09-16 09:37:00,50.3,39.4,29.52,NNW,346,0.0,0.0,66,0.00,CLR,,0.00,WeatherDisplay:10.37,2013-09-16 17:37:00,
2013-09-16 09:42:00,50.5,39.2,29.51,NNW,347,0.0,0.0,65,0.00,CLR,,0.00,WeatherDisplay:10.37,2013-09-16 17:42:00,
2013-09-16 09:47:00,50.7,39.4,29.51,NNW,347,0.0,0.0,65,0.00,CLR,,0.00,WeatherDisplay:10.37,2013-09-16 17:47:00,
2013-09-16 09:52:00,51.0,39.6,29.51,NNW,347,0.0,0.0,65,0.00,CLR,,0.00,WeatherDisplay:10.37,2013-09-16 17:52:00,
2013-09-16 09:57:00,51.2,39.8,29.51,NNW,347,0.0,0.0,65,0.00,CLR,,0.00,WeatherDisplay:10.37,2013-09-16 17:57:00,
2013-09-16 10:02:00,51.2,39.8,29.51,NNW,347,0.0,0.0,65,0.00,CLR,,0.00,WeatherDisplay:10.37,2013-09-16 18:02:00,
2013-09-16 10:07:00,51.4,40.0,29.51,NNW,347,0.0,0.0,65,0.00,CLR,,0.00,WeatherDisplay:10.37,2013-09-16 18:07:00,
2013-09-16 10:12:00,51.4,39.6,29.51,NNW,347,0.0,0.0,64,0.00,CLR,,0.00,WeatherDisplay:10.37,2013-09-16 18:12:00,
2013-09-16 10:17:00,51.5,40.1,29.51,NNW,347,0.0,0.0,65,0.00,CLR,,0.00,WeatherDisplay:10.37,2013-09-16 18:17:00,
2013-09-16 10:22:00,51.5,39.7,29.51,NNW,347,0.0,0.0,64,0.00,CLR,,0.00,WeatherDisplay:10.37,2013-09-16 18:22:00,
2013-09-16 10:27:00,51.6,39.8,29.51,NNW,347,0.0,0.0,64,0.00,CLR,,0.00,WeatherDisplay:10.37,2013-09-16 18:27:00,
2013-09-16 10:32:00,51.4,40.0,29.51,NNW,347,0.0,0.0,65,0.00,CLR,,0.00,WeatherDisplay:10.37,2013-09-16 18:32:00,
2013-09-16 10:37:00,51.2,39.8,29.51,NNW,347,0.0,0.0,65,0.00,CLR,,0.00,WeatherDisplay:10.37,2013-09-16 18:37:00,
2013-09-16 10:42:00,51.2,39.8,29.51,NNW,347,0.0,0.0,65,0.00,CLR,,0.00,WeatherDisplay:10.37,2013-09-16 18:42:00,
2013-09-16 10:47:00,51.4,39.6,29.51,NNW,347,0.0,0.0,64,0.00,CLR,,0.00,WeatherDisplay:10.37,2013-09-16 18:47:00,
2013-09-16 10:52:00,51.7,39.9,29.51,NNW,347,0.0,0.0,64,0.00,CLR,,0.00,WeatherDisplay:10.37,2013-09-16 18:52:00,
2013-09-16 10:57:00,52.0,40.2,29.51,NNW,347,0.0,0.0,64,0.00,CLR,,0.00,WeatherDisplay:10.37,2013-09-16 18:57:00,
2013-09-16 11:02:00,52.6,38.2,29.51,NNW,347,0.0,0.0,58,0.00,CLR,,0.00,WeatherDisplay:10.37,2013-09-16 19:02:00,
2013-09-16 11:07:00,53.5,39.1,29.51,NNW,347,0.0,0.0,58,0.00,CLR,,0.00,WeatherDisplay:10.37,2013-09-16 19:07:00,
2013-09-16 11:12:00,54.2,37.4,29.51,NNW,346,0.0,0.0,53,0.00,CLR,,0.00,WeatherDisplay:10.37,2013-09-16 19:12:00,
2013-09-16 11:17:00,54.8,38.0,29.51,NNW,345,0.0,0.0,53,0.00,CLR,,0.00,WeatherDisplay:10.37,2013-09-16 19:17:00,
2013-09-16 11:22:00,55.0,37.7,29.51,NNW,346,0.0,0.0,52,0.00,CLR,,0.00,WeatherDisplay:10.37,2013-09-16 19:22:00,
2013-09-16 11:27:00,55.0,38.2,29.50,NNW,346,0.0,0.0,53,0.00,CLR,,0.00,WeatherDisplay:10.37,2013-09-16 19:27:00,
2013-09-16 11:32:00,55.1,38.3,29.50,NNW,345,0.0,0.0,53,0.00,CLR,,0.00,WeatherDisplay:10.37,2013-09-16 19:32:00,
2013-09-16 11:37:00,55.4,38.5,29.50,NNW,345,0.0,0.0,53,0.00,CLR,,0.00,WeatherDisplay:10.37,2013-09-16 19:37:00,
2013-09-16 11:42:00,55.8,37.9,29.50,NNW,346,0.0,0.0,51,0.00,CLR,,0.00,WeatherDisplay:10.37,2013-09-16 19:42:00,
2013-09-16 11:47:00,56.3,37.9,29.50,NNW,346,0.0,0.0,50,0.00,CLR,,0.00,WeatherDisplay:10.37,2013-09-16 19:47:00,
2013-09-16 11:52:00,56.6,37.6,29.49,NNW,346,0.0,0.0,49,0.00,CLR,,0.00,WeatherDisplay:10.37,2013-09-16 19:52:00,
2013-09-16 11:57:00,56.8,37.3,29.50,NNW,345,0.0,0.0,48,0.00,CLR,,0.00,WeatherDisplay:10.37,2013-09-16 19:57:00,
2013-09-16 12:02:00,56.8,37.8,29.50,NNW,345,0.0,0.0,49,0.00,CLR,,0.00,WeatherDisplay:10.37,2013-09-16 20:02:00,
2013-09-16 12:07:00,56.7,37.7,29.50,NNW,345,0.0,0.0,49,0.00,CLR,,0.00,WeatherDisplay:10.37,2013-09-16 20:07:00,
2013-09-16 12:12:00,56.6,37.6,29.50,NNW,345,0.0,0.0,49,0.00,CLR,,0.00,WeatherDisplay:10.37,2013-09-16 20:12:00,
2013-09-16 12:17:00,56.6,38.2,29.49,NNW,346,0.0,0.0,50,0.00,CLR,,0.00,WeatherDisplay:10.37,2013-09-16 20:17:00,
2013-09-16 12:22:00,56.8,37.8,29.49,NNW,347,0.0,0.0,49,0.00,CLR,,0.00,WeatherDisplay:10.37,2013-09-16 20:22:00,
2013-09-16 12:27:00,56.8,37.3,29.49,NNW,345,0.0,0.0,48,0.00,CLR,,0.00,WeatherDisplay:10.37,2013-09-16 20:27:00,
2013-09-16 12:32:00,56.8,37.3,29.50,NNW,345,0.0,0.0,48,0.00,CLR,,0.00,WeatherDisplay:10.37,2013-09-16 20:32:00,
2013-09-16 12:37:00,56.7,37.2,29.49,NNW,345,0.0,0.0,48,0.00,CLR,,0.00,WeatherDisplay:10.37,2013-09-16 20:37:00,
2013-09-16 12:42:00,56.7,37.2,29.49,NNW,346,0.0,0.0,48,0.00,CLR,,0.00,WeatherDisplay:10.37,2013-09-16 20:42:00,
2013-09-16 12:47:00,56.6,37.1,29.50,NNW,345,0.0,0.0,48,0.00,CLR,,0.00,WeatherDisplay:10.37,2013-09-16 20:47:00,
2013-09-16 12:52:00,56.6,38.2,29.49,NNW,347,0.0,0.0,50,0.00,CLR,,0.00,WeatherDisplay:10.37,2013-09-16 20:52:00,
2013-09-16 12:57:00,56.7,36.7,29.50,NNW,344,0.0,0.0,47,0.00,CLR,,0.00,WeatherDisplay:10.37,2013-09-16 20:57:00,
2013-09-16 13:02:00,56.8,37.3,29.49,NNW,345,0.0,0.0,48,0.00,CLR,,0.00,WeatherDisplay:10.37,2013-09-16 21:02:00,
2013-09-16 13:07:00,56.9,38.4,29.49,NNW,345,0.0,0.0,50,0.00,CLR,,0.00,WeatherDisplay:10.37,2013-09-16 21:07:00,
2013-09-16 13:12:00,56.9,37.4,29.49,NNW,345,0.0,0.0,48,0.00,CLR,,0.00,WeatherDisplay:10.37,2013-09-16 21:12:00,
2013-09-16 13:17:00,57.1,38.1,29.48,NNW,346,0.0,0.0,49,0.00,CLR,,0.00,WeatherDisplay:10.37,2013-09-16 21:17:00,
2013-09-16 13:22:00,57.2,37.7,29.48,NNW,346,0.0,0.0,48,0.00,CLR,,0.00,WeatherDisplay:10.37,2013-09-16 21:22:00,
2013-09-16 13:27:00,57.4,37.9,29.48,NNW,345,0.0,0.0,48,0.00,CLR,,0.00,WeatherDisplay:10.37,2013-09-16 21:27:00,
2013-09-16 13:32:00,57.6,38.0,29.48,NNW,347,0.0,0.0,48,0.00,CLR,,0.00,WeatherDisplay:10.37,2013-09-16 21:32:00,
2013-09-16 13:37:00,57.7,38.7,29.48,NNW,345,0.0,0.0,49,0.00,CLR,,0.00,WeatherDisplay:10.37,2013-09-16 21:37:00,
2013-09-16 13:42:00,57.8,38.2,29.47,NNW,345,0.0,0.0,48,0.00,CLR,,0.00,WeatherDisplay:10.37,2013-09-16 21:42:00,
2013-09-16 13:47:00,57.7,37.6,29.47,NNW,345,0.0,0.0,47,0.00,CLR,,0.00,WeatherDisplay:10.37,2013-09-16 21:47:00,
2013-09-16 13:52:00,57.8,37.7,29.47,NNW,345,0.0,0.0,47,0.00,CLR,,0.00,WeatherDisplay:10.37,2013-09-16 21:52:00,
2013-09-16 13:57:00,57.7,38.1,29.46,NNW,345,0.0,0.0,48,0.00,CLR,,0.00,WeatherDisplay:10.37,2013-09-16 21:57:00,
2013-09-16 14:02:00,57.6,38.0,29.46,NNW,344,0.0,0.0,48,0.00,CLR,,0.00,WeatherDisplay:10.37,2013-09-16 22:02:00,
2013-09-16 14:07:00,57.6,37.5,29.46,NNW,345,0.0,0.0,47,0.00,CLR,,0.00,WeatherDisplay:10.37,2013-09-16 22:07:00,
2013-09-16 14:12:00,57.7,38.1,29.46,NNW,345,0.0,0.0,48,0.00,CLR,,0.00,WeatherDisplay:10.37,2013-09-16 22:12:00,
2013-09-16 14:17:00,57.7,37.6,29.46,NNW,345,0.0,0.0,47,0.00,CLR,,0.00,WeatherDisplay:10.37,2013-09-16 22:17:00,
2013-09-16 14:22:00,57.7,37.6,29.46,NNW,344,0.0,0.0,47,0.00,CLR,,0.00,WeatherDisplay:10.37,2013-09-16 22:22:00,
2013-09-16 14:27:00,57.6,38.0,29.47,NNW,345,0.0,0.0,48,0.00,CLR,,0.00,WeatherDisplay:10.37,2013-09-16 22:27:00,
2013-09-16 14:32:00,57.5,37.9,29.46,NNW,345,0.0,0.0,48,0.00,CLR,,0.00,WeatherDisplay:10.37,2013-09-16 22:32:00,
2013-09-16 14:37:00,57.5,38.5,29.47,NNW,345,0.0,0.0,49,0.00,CLR,,0.00,WeatherDisplay:10.37,2013-09-16 22:37:00,
2013-09-16 14:42:00,57.3,37.8,29.46,NNW,345,0.0,0.0,48,0.00,CLR,,0.00,WeatherDisplay:10.37,2013-09-16 22:42:00,
2013-09-16 14:47:00,57.3,37.8,29.46,NNW,346,0.0,0.0,48,0.00,CLR,,0.00,WeatherDisplay:10.37,2013-09-16 22:47:00,
2013-09-16 14:52:00,57.3,37.8,29.46,NNW,347,0.0,0.0,48,0.00,CLR,,0.00,WeatherDisplay:10.37,2013-09-16 22:52:00,
2013-09-16 14:57:00,57.3,37.2,29.46,NNW,345,0.0,0.0,47,0.00,CLR,,0.00,WeatherDisplay:10.37,2013-09-16 22:57:00,
2013-09-16 15:02:00,57.4,37.9,29.47,NNW,345,0.0,0.0,48,0.00,CLR,,0.00,WeatherDisplay:10.37,2013-09-16 23:02:00,
2013-09-16 15:07:00,57.3,37.8,29.47,NNW,346,0.0,0.0,48,0.00,CLR,,0.00,WeatherDisplay:10.37,2013-09-16 23:07:00,
2013-09-16 15:12:00,57.5,37.9,29.46,NNW,346,0.0,0.0,48,0.00,CLR,,0.00,WeatherDisplay:10.37,2013-09-16 23:12:00,
2013-09-16 15:17:00,57.5,37.9,29.46,NNW,345,0.0,0.0,48,0.00,CLR,,0.00,WeatherDisplay:10.37,2013-09-16 23:17:00,
2013-09-16 15:22:00,57.6,37.5,29.46,NNW,346,0.0,0.0,47,0.00,CLR,,0.00,WeatherDisplay:10.37,2013-09-16 23:22:00,
2013-09-16 15:27:00,57.7,37.0,29.46,NNW,345,0.0,0.0,46,0.00,CLR,,0.00,WeatherDisplay:10.37,2013-09-16 23:27:00,
2013-09-16 15:32:00,57.7,37.6,29.46,NNW,345,0.0,0.0,47,0.00,CLR,,0.00,WeatherDisplay:10.37,2013-09-16 23:32:00,
2013-09-16 15:37:00,57.7,37.0,29.46,NNW,345,0.0,0.0,46,0.00,CLR,,0.00,WeatherDisplay:10.37,2013-09-16 23:37:00,
2013-09-16 15:42:00,57.7,37.0,29.46,NNW,346,0.0,0.0,46,0.00,CLR,,0.00,WeatherDisplay:10.37,2013-09-16 23:42:00,
2013-09-16 15:47:00,57.7,37.6,29.46,NNW,346,0.0,0.0,47,0.00,CLR,,0.00,WeatherDisplay:10.37,2013-09-16 23:47:00,
2013-09-16 15:52:00,57.7,37.0,29.46,NNW,345,0.0,0.0,46,0.00,CLR,,0.00,WeatherDisplay:10.37,2013-09-16 23:52:00,
2013-09-16 15:57:00,57.6,37.0,29.46,NNW,345,0.0,0.0,46,0.00,CLR,,0.00,WeatherDisplay:10.37,2013-09-16 23:57:00,
2013-09-16 16:02:00,57.6,37.5,29.46,NNW,345,0.0,0.0,47,0.00,CLR,,0.00,WeatherDisplay:10.37,2013-09-17 00:02:00,
2013-09-16 16:07:00,57.5,37.4,29.46,NNW,345,0.0,0.0,47,0.00,CLR,,0.00,WeatherDisplay:10.37,2013-09-17 00:07:00,
2013-09-16 16:12:00,57.4,37.3,29.46,NNW,346,0.0,0.0,47,0.00,CLR,,0.00,WeatherDisplay:10.37,2013-09-17 00:12:00,
2013-09-16 16:17:00,57.3,37.2,29.46,NNW,345,0.0,0.0,47,0.00,CLR,,0.00,WeatherDisplay:10.37,2013-09-17 00:17:00,
2013-09-16 16:22:00,57.2,37.1,29.46,NNW,346,0.0,0.0,47,0.00,CLR,,0.00,WeatherDisplay:10.37,2013-09-17 00:22:00,
2013-09-16 16:27:00,57.1,37.6,29.45,NNW,346,0.0,0.0,48,0.00,CLR,,0.00,WeatherDisplay:10.37,2013-09-17 00:27:00,
2013-09-16 16:32:00,56.9,36.9,29.45,NNW,345,0.0,0.0,47,0.00,CLR,,0.00,WeatherDisplay:10.37,2013-09-17 00:32:00,
2013-09-16 16:37:00,56.9,36.3,29.45,NNW,345,0.0,0.0,46,0.00,CLR,,0.00,WeatherDisplay:10.37,2013-09-17 00:37:00,
2013-09-16 16:42:00,57.1,37.0,29.45,NNW,345,0.0,0.0,47,0.00,CLR,,0.00,WeatherDisplay:10.37,2013-09-17 00:42:00,
2013-09-16 16:47:00,57.2,37.1,29.45,NNW,345,0.0,0.0,47,0.00,CLR,,0.00,WeatherDisplay:10.37,2013-09-17 00:47:00,
2013-09-16 16:52:00,57.2,37.7,29.45,NNW,345,0.0,0.0,48,0.00,CLR,,0.00,WeatherDisplay:10.37,2013-09-17 00:52:00,
2013-09-16 16:57:00,57.1,37.0,29.45,NNW,346,0.0,0.0,47,0.00,CLR,,0.00,WeatherDisplay:10.37,2013-09-17 00:57:00,
2013-09-16 17:02:00,57.0,37.5,29.45,NNW,346,0.0,0.0,48,0.00,CLR,,0.00,WeatherDisplay:10.37,2013-09-17 01:02:00,
2013-09-16 17:07:00,56.9,37.4,29.45,NNW,346,0.0,0.0,48,0.00,CLR,,0.00,WeatherDisplay:10.37,2013-09-17 01:07:00,
2013-09-16 17:12:00,56.8,36.8,29.45,NNW,346,0.0,0.0,47,0.00,CLR,,0.00,WeatherDisplay:10.37,2013-09-17 01:12:00,
2013-09-16 17:17:00,56.8,37.3,29.45,NNW,346,0.0,0.0,48,0.00,CLR,,0.00,WeatherDisplay:10.37,2013-09-17 01:17:00,
2013-09-16 17:22:00,56.8,37.8,29.45,NNW,347,0.0,0.0,49,0.00,CLR,,0.00,WeatherDisplay:10.37,2013-09-17 01:22:00,
2013-09-16 17:27:00,56.8,37.8,29.45,NNW,346,0.0,0.0,49,0.00,CLR,,0.00,WeatherDisplay:10.37,2013-09-17 01:27:00,
2013-09-16 17:32:00,56.8,37.8,29.45,NNW,345,0.0,0.0,49,0.00,CLR,,0.00,WeatherDisplay:10.37,2013-09-17 01:32:00,
2013-09-16 17:37:00,56.8,37.3,29.45,NNW,346,0.0,0.0,48,0.00,CLR,,0.00,WeatherDisplay:10.37,2013-09-17 01:37:00,
2013-09-16 17:42:00,56.8,38.3,29.45,NNW,346,0.0,0.0,50,0.00,CLR,,0.00,WeatherDisplay:10.37,2013-09-17 01:42:00,
2013-09-16 17:47:00,56.6,38.2,29.45,NNW,345,0.0,0.0,50,0.00,CLR,,0.00,WeatherDisplay:10.37,2013-09-17 01:47:00,
2013-09-16 17:52:00,56.5,38.6,29.45,NNW,346,0.0,0.0,51,0.00,CLR,,0.00,WeatherDisplay:10.37,2013-09-17 01:52:00,
2013-09-16 17:57:00,56.3,39.4,29.45,NNW,346,0.0,0.0,53,0.00,CLR,,0.00,WeatherDisplay:10.37,2013-09-17 01:57:00,
2013-09-16 18:02:00,56.0,39.6,29.45,NNW,346,0.0,0.0,54,0.00,CLR,,0.00,WeatherDisplay:10.37,2013-09-17 02:02:00,
2013-09-16 18:07:00,55.7,39.3,29.45,NNW,345,0.0,0.0,54,0.00,CLR,,0.00,WeatherDisplay:10.37,2013-09-17 02:07:00,
2013-09-16 18:12:00,55.6,39.2,29.45,NNW,346,0.0,0.0,54,0.00,CLR,,0.00,WeatherDisplay:10.37,2013-09-17 02:12:00,
2013-09-16 18:17:00,55.5,39.1,29.45,NNW,346,0.0,0.0,54,0.00,CLR,,0.00,WeatherDisplay:10.37,2013-09-17 02:17:00,
2013-09-16 18:22:00,55.5,38.6,29.45,NNW,345,0.0,0.0,53,0.00,CLR,,0.00,WeatherDisplay:10.37,2013-09-17 02:22:00,
2013-09-16 18:27:00,55.7,38.8,29.45,NNW,345,0.0,0.0,53,0.00,CLR,,0.00,WeatherDisplay:10.37,2013-09-17 02:27:00,
2013-09-16 18:32:00,55.9,38.5,29.45,NNW,346,0.0,0.0,52,0.00,CLR,,0.00,WeatherDisplay:10.37,2013-09-17 02:32:00,
2013-09-16 18:37:00,56.2,38.3,29.45,NNW,346,0.0,0.0,51,0.00,CLR,,0.00,WeatherDisplay:10.37,2013-09-17 02:37:00,
2013-09-16 18:42:00,56.2,38.8,29.45,NNW,346,0.0,0.0,52,0.00,CLR,,0.00,WeatherDisplay:10.37,2013-09-17 02:42:00,
2013-09-16 18:47:00,56.1,39.2,29.45,NNW,345,0.0,0.0,53,0.00,CLR,,0.00,WeatherDisplay:10.37,2013-09-17 02:47:00,
2013-09-16 18:52:00,55.9,38.5,29.45,NNW,346,0.0,0.0,52,0.00,CLR,,0.00,WeatherDisplay:10.37,2013-09-17 02:52:00,
2013-09-16 18:57:00,56.0,39.1,29.45,NNW,345,0.0,0.0,53,0.00,CLR,,0.00,WeatherDisplay:10.37,2013-09-17 02:57:00,
2013-09-16 19:02:00,55.9,38.0,29.45,NNW,345,0.0,0.0,51,0.00,CLR,,0.00,WeatherDisplay:10.37,2013-09-17 03:02:00,
2013-09-16 19:07:00,55.9,38.5,29.45,NNW,346,0.0,0.0,52,0.00,CLR,,0.00,WeatherDisplay:10.37,2013-09-17 03:07:00,
2013-09-16 19:12:00,55.8,38.4,29.45,NNW,346,0.0,0.0,52,0.00,CLR,,0.00,WeatherDisplay:10.37,2013-09-17 03:12:00,
2013-09-16 19:17:00,55.6,38.2,29.45,NNW,347,0.0,0.0,52,0.00,CLR,,0.00,WeatherDisplay:10.37,2013-09-17 03:17:00,
2013-09-16 19:22:00,55.7,37.8,29.45,NNW,345,0.0,0.0,51,0.00,CLR,,0.00,WeatherDisplay:10.37,2013-09-17 03:22:00,
2013-09-16 19:27:00,55.6,38.2,29.45,NNW,346,0.0,0.0,52,0.00,CLR,,0.00,WeatherDisplay:10.37,2013-09-17 03:27:00,
2013-09-16 19:32:00,55.4,38.5,29.45,NNW,346,0.0,0.0,53,0.00,CLR,,0.00,WeatherDisplay:10.37,2013-09-17 03:32:00,
2013-09-16 19:37:00,55.1,39.7,29.45,NNW,345,0.0,0.0,56,0.00,CLR,,0.00,WeatherDisplay:10.37,2013-09-17 03:37:00,
2013-09-16 19:42:00,54.6,40.1,29.45,NNW,345,0.0,0.0,58,0.00,CLR,,0.00,WeatherDisplay:10.37,2013-09-17 03:42:00,
2013-09-16 19:47:00,54.1,40.1,29.45,NNW,346,0.0,0.0,59,0.00,CLR,,0.00,WeatherDisplay:10.37,2013-09-17 03:47:00,
2013-09-16 19:52:00,53.7,40.1,29.45,NNW,346,0.0,0.0,60,0.00,CLR,,0.00,WeatherDisplay:10.37,2013-09-17 03:52:00,
2013-09-16 19:57:00,53.6,40.0,29.45,NNW,345,0.0,0.0,60,0.00,CLR,,0.00,WeatherDisplay:10.37,2013-09-17 03:57:00,
2013-09-16 20:01:00,53.6,40.5,29.45,NNW,346,0.0,0.0,61,0.00,CLR,,0.00,WeatherDisplay:10.37,2013-09-17 04:01:00,
2013-09-16 20:06:00,53.3,40.2,29.45,NNW,345,0.0,0.0,61,0.00,CLR,,0.00,WeatherDisplay:10.37,2013-09-17 04:06:00,
2013-09-16 20:11:00,53.2,40.5,29.45,NNW,346,0.0,0.0,62,0.00,CLR,,0.00,WeatherDisplay:10.37,2013-09-17 04:11:00,
2013-09-16 20:16:00,53.0,41.1,29.45,NNW,346,0.0,0.0,64,0.00,CLR,,0.00,WeatherDisplay:10.37,2013-09-17 04:16:00,
2013-09-16 20:21:00,52.8,40.5,29.45,NNW,346,0.0,0.0,63,0.00,CLR,,0.00,WeatherDisplay:10.37,2013-09-17 04:21:00,
2013-09-16 20:26:00,52.7,40.9,29.45,NNW,345,0.0,0.0,64,0.00,CLR,,0.00,WeatherDisplay:10.37,2013-09-17 04:26:00,
2013-09-16 20:31:00,52.4,40.6,29.45,NNW,346,0.0,0.0,64,0.00,CLR,,0.00,WeatherDisplay:10.37,2013-09-17 04:31:00,
2013-09-16 20:36:00,52.3,40.9,29.45,NNW,345,0.0,0.0,65,0.00,CLR,,0.00,WeatherDisplay:10.37,2013-09-17 04:36:00,
2013-09-16 20:41:00,52.2,40.8,29.45,NNW,346,0.0,0.0,65,0.00,CLR,,0.00,WeatherDisplay:10.37,2013-09-17 04:41:00,
2013-09-16 20:46:00,52.2,40.8,29.45,NNW,346,0.0,0.0,65,0.00,CLR,,0.00,WeatherDisplay:10.37,2013-09-17 04:46:00,
2013-09-16 20:51:00,52.2,40.8,29.45,NNW,346,0.0,0.0,65,0.00,CLR,,0.00,WeatherDisplay:10.37,2013-09-17 04:51:00,
2013-09-16 20:56:00,52.3,40.9,29.45,NNW,346,0.0,0.0,65,0.00,CLR,,0.00,WeatherDisplay:10.37,2013-09-17 04:56:00,
2013-09-16 21:01:00,52.2,40.8,29.45,NNW,345,0.0,0.0,65,0.00,CLR,,0.00,WeatherDisplay:10.37,2013-09-17 05:01:00,
2013-09-16 21:06:00,52.2,40.8,29.45,NNW,346,0.0,0.0,65,0.00,CLR,,0.00,WeatherDisplay:10.37,2013-09-17 05:06:00,
2013-09-16 21:11:00,52.1,40.7,29.45,NNW,346,0.0,0.0,65,0.00,CLR,,0.00,WeatherDisplay:10.37,2013-09-17 05:11:00,
2013-09-16 21:16:00,52.1,40.3,29.45,NNW,345,0.0,0.0,64,0.00,CLR,,0.00,WeatherDisplay:10.37,2013-09-17 05:16:00,
2013-09-16 21:21:00,52.1,40.7,29.45,NNW,345,0.0,0.0,65,0.00,CLR,,0.00,WeatherDisplay:10.37,2013-09-17 05:21:00,
2013-09-16 21:26:00,51.9,40.9,29.45,NNW,346,0.0,0.0,66,0.00,CLR,,0.00,WeatherDisplay:10.37,2013-09-17 05:26:00,
2013-09-16 21:31:00,51.7,41.1,29.45,NNW,346,0.0,0.0,67,0.00,CLR,,0.00,WeatherDisplay:10.37,2013-09-17 05:31:00,
2013-09-16 21:36:00,51.5,40.9,29.45,NNW,345,0.0,0.0,67,0.00,CLR,,0.00,WeatherDisplay:10.37,2013-09-17 05:36:00,
2013-09-16 21:41:00,51.3,40.7,29.45,NNW,345,0.0,0.0,67,0.00,CLR,,0.00,WeatherDisplay:10.37,2013-09-17 05:41:00,
2013-09-16 21:46:00,51.3,40.3,29.45,NNW,346,0.0,0.0,66,0.00,CLR,,0.00,WeatherDisplay:10.37,2013-09-17 05:46:00,
2013-09-16 21:51:00,51.4,40.4,29.45,NNW,346,0.0,0.0,66,0.00,CLR,,0.00,WeatherDisplay:10.37,2013-09-17 05:51:00,
2013-09-16 21:56:00,51.5,40.9,29.45,NNW,345,0.0,0.0,67,0.00,CLR,,0.00,WeatherDisplay:10.37,2013-09-17 05:56:00,
2013-09-16 22:01:00,51.4,41.2,29.45,NNW,345,0.0,0.0,68,0.00,CLR,,0.00,WeatherDisplay:10.37,2013-09-17 06:01:00,
2013-09-16 22:06:00,50.9,41.5,29.45,NNW,346,0.0,0.0,70,0.00,CLR,,0.00,WeatherDisplay:10.37,2013-09-17 06:06:00,
2013-09-16 22:11:00,50.5,41.4,29.45,NNW,346,0.0,0.0,71,0.00,CLR,,0.00,WeatherDisplay:10.37,2013-09-17 06:11:00,
2013-09-16 22:16:00,50.2,40.8,29.45,NNW,345,0.0,0.0,70,0.00,CLR,,0.00,WeatherDisplay:10.37,2013-09-17 06:16:00,
2013-09-16 22:21:00,50.2,40.8,29.45,NNW,346,0.0,0.0,70,0.00,CLR,,0.00,WeatherDisplay:10.37,2013-09-17 06:21:00,
2013-09-16 22:26:00,50.3,40.9,29.45,NNW,346,0.0,0.0,70,0.00,CLR,,0.00,WeatherDisplay:10.37,2013-09-17 06:26:00,
2013-09-16 22:31:00,50.6,40.8,29.45,NNW,346,0.0,0.0,69,0.00,CLR,,0.00,WeatherDisplay:10.37,2013-09-17 06:31:00,
2013-09-16 22:36:00,50.9,40.7,29.45,NNW,345,0.0,0.0,68,0.00,CLR,,0.00,WeatherDisplay:10.37,2013-09-17 06:36:00,
2013-09-16 22:41:00,51.0,40.8,29.45,NNW,346,0.0,0.0,68,0.00,CLR,,0.00,WeatherDisplay:10.37,2013-09-17 06:41:00,
2013-09-16 22:46:00,51.0,40.8,29.45,NNW,345,0.0,0.0,68,0.00,CLR,,0.00,WeatherDisplay:10.37,2013-09-17 06:46:00,
2013-09-16 22:51:00,51.0,41.2,29.45,NNW,345,0.0,0.0,69,0.00,CLR,,0.00,WeatherDisplay:10.37,2013-09-17 06:51:00,
2013-09-16 22:56:00,50.9,41.5,29.45,NNW,346,0.0,0.0,70,0.00,CLR,,0.00,WeatherDisplay:10.37,2013-09-17 06:56:00,
2013-09-16 23:01:00,50.8,41.4,29.45,NNW,346,0.0,0.0,70,0.00,CLR,,0.00,WeatherDisplay:10.37,2013-09-17 07:01:00,
2013-09-16 23:06:00,50.6,40.4,29.45,NNW,346,0.0,0.0,68,0.00,CLR,,0.00,WeatherDisplay:10.37,2013-09-17 07:06:00,
2013-09-16 23:11:00,50.8,40.2,29.45,NNW,345,0.0,0.0,67,0.00,CLR,,0.00,WeatherDisplay:10.37,2013-09-17 07:11:00,
2013-09-16 23:16:00,51.1,40.5,29.45,NNW,345,0.0,0.0,67,0.00,CLR,,0.00,WeatherDisplay:10.37,2013-09-17 07:16:00,
2013-09-16 23:21:00,51.2,40.6,29.45,NNW,346,0.0,0.0,67,0.00,CLR,,0.00,WeatherDisplay:10.37,2013-09-17 07:21:00,
2013-09-16 23:26:00,51.0,40.8,29.45,NNW,345,0.0,0.0,68,0.00,CLR,,0.00,WeatherDisplay:10.37,2013-09-17 07:26:00,
2013-09-16 23:31:00,50.9,41.1,29.45,NNW,345,0.0,0.0,69,0.00,CLR,,0.00,WeatherDisplay:10.37,2013-09-17 07:31:00,
2013-09-16 23:36:00,50.6,41.5,29.45,NNW,346,0.0,0.0,71,0.00,CLR,,0.00,WeatherDisplay:10.37,2013-09-17 07:36:00,
2013-09-16 23:41:00,50.3,41.3,29.45,NNW,346,0.0,0.0,71,0.00,CLR,,0.00,WeatherDisplay:10.37,2013-09-17 07:41:00,
2013-09-16 23:46:00,50.0,41.7,29.45,NNW,346,0.0,0.0,73,0.00,CLR,,0.00,WeatherDisplay:10.37,2013-09-17 07:46:00,
2013-09-16 23:51:00,49.8,41.5,29.44,NNW,346,0.0,0.0,73,0.00,CLR,,0.00,WeatherDisplay:10.37,2013-09-17 07:51:00,
2013-09-16 23:56:00,49.5,41.2,29.45,NNW,345,0.0,0.0,73,0.00,CLR,,0.00,WeatherDisplay:10.37,2013-09-17 07:56:00,